Wye Mills, MD

8:25 PM EST on December 17, 2014 (GMT -0500)
Tuckahoe Neck | Change Station
CLOSE
Current Station
Personal Weather Station
Location: Denton, MD
Elevation: 36 ft
Nearby Weather Stations

Elev 36 ft 38.83 °N, 75.91 °W | Updated 4 minutes ago

Clear
Clear
42.3 °F
Feels Like 40 °F
N
4.0
Wind Variable Wind from West

Today
High -- | Low -- °F
--% Chance of Precip.
Yesterday
High -- | Low -- °F
Precip. -- in
7:15 AM 4:43 PM
Waning Crescent, 18% visible
Pressure 30.04 in
Visibility 10.0 miles
Clouds Scattered Clouds 7000 ft
Windchill 40 °F
Dew Point 33 °F
Humidity 69%
Rainfall 0.00 in
Snow Depth Not available.
UV 0 out of 12
Pollen .10 out of 12
Air Quality Not available.
Flu Activity Not available.
METAR KESN 180050Z 33010G15KT 10SM SCT070 07/M01 A3004

More Conditions Fewer Conditions

Pressure 30.04 in
Visibility 10.0 miles
Clouds Scattered Clouds 7000 ft
Windchill 40 °F
Dew Point 33 °F
Humidity 69%
Rainfall 0.00 in
Snow Depth Not available.
UV 0 out of 12
Pollen .10 out of 12
Air Quality Not available.
Flu Activity Not available.
METAR KESN 180050Z 33010G15KT 10SM SCT070 07/M01 A3004

More Conditions Fewer Conditions

10-Day Weather Forecast

Almanac

Astronomy

Dec. 17, 2014 Rise Set
Actual Time
Civil Twilight
Nautical Twilight
Astronomical Twilight
Moon
Length of Visible Light
Length of Day
Tomorrow will be .
, % of the Moon is Illuminated

Today's Extremes

State Highs State Lows

Community

WunderPhotos

Upload Photos

1,778,847 photos uploaded!

WunderBlogs® & News

Nearby

Air Quality

  Air Quality AQ Index Pollutant
Not available.

Snow Depth

Station Depth Elevation

Earthquake Activity

City Distance Mag. Time & Date
Minimum magnitude displayed is 2.5.

Coastal Water Temperatures

Place Temperature

Nearby Weather Stations